createdAt,value
2018-03-24T00:02:25.567Z,98752.98
2018-03-24T00:04:51.519Z,98749.45
2018-03-24T00:07:17.471Z,98751.89
2018-03-24T00:09:43.415Z,98747.67
2018-03-24T00:12:09.380Z,98749.05
2018-03-24T00:14:35.326Z,98741.97
2018-03-24T00:17:01.293Z,98743.72
2018-03-24T00:19:27.264Z,98737.48
2018-03-24T00:21:53.232Z,98733.88
2018-03-24T00:24:19.184Z,98737.92
2018-03-24T00:26:45.130Z,98733.83
2018-03-24T00:29:11.087Z,98729.80
2018-03-24T00:31:37.027Z,98730.73
2018-03-24T00:34:02.976Z,98727.19
2018-03-24T00:36:28.911Z,98730.20
2018-03-24T00:38:54.897Z,98721.34
2018-03-24T00:41:20.849Z,98724.23
2018-03-24T00:43:46.817Z,98717.98
2018-03-24T00:46:12.751Z,98718.28
2018-03-24T00:48:38.693Z,98720.91
2018-03-24T00:51:04.652Z,98724.41
2018-03-24T00:53:30.619Z,98727.38
2018-03-24T00:55:56.569Z,98727.13
2018-03-24T00:58:22.517Z,98723.44
2018-03-24T01:00:48.447Z,98722.00
2018-03-24T01:03:14.391Z,98729.79
2018-03-24T01:05:40.351Z,98728.92
2018-03-24T01:08:06.297Z,98730.87
2018-03-24T01:10:32.234Z,98724.09
2018-03-24T01:12:58.173Z,98726.32
2018-03-24T01:15:24.125Z,98715.22
2018-03-24T01:17:50.123Z,98718.60
2018-03-24T01:20:16.081Z,98715.75
2018-03-24T01:22:42.029Z,98715.12
2018-03-24T01:25:07.959Z,98708.08
2018-03-24T01:27:33.937Z,98706.14
2018-03-24T01:29:59.881Z,98702.89
2018-03-24T01:32:25.817Z,98702.55
2018-03-24T01:34:51.770Z,98698.89
2018-03-24T01:37:17.730Z,98695.94
2018-03-24T01:39:43.659Z,98691.52
2018-03-24T01:42:09.628Z,98690.09
2018-03-24T01:44:35.581Z,98682.05
2018-03-24T01:47:01.614Z,98690.56
2018-03-24T01:49:28.652Z,98688.27
2018-03-24T01:51:54.591Z,98686.88
2018-03-24T01:54:20.551Z,98684.32
2018-03-24T01:56:46.518Z,98685.31
2018-03-24T01:59:12.458Z,98685.88
2018-03-24T02:01:38.399Z,98688.17
2018-03-24T02:04:04.326Z,98685.29
2018-03-24T02:06:30.307Z,98679.73
2018-03-24T02:08:56.233Z,98679.61
2018-03-24T02:11:22.196Z,98686.11
2018-03-24T02:13:48.159Z,98686.05
2018-03-24T02:16:14.199Z,98679.08
2018-03-24T02:18:40.170Z,98675.42
2018-03-24T02:21:06.109Z,98682.28
2018-03-24T02:23:32.061Z,98672.53
2018-03-24T02:25:57.988Z,98670.42
2018-03-24T02:28:23.942Z,98675.78
2018-03-24T02:30:49.896Z,98664.23
2018-03-24T02:33:15.856Z,98664.53
2018-03-24T02:35:41.810Z,98670.69
2018-03-24T02:38:07.761Z,98673.10
2018-03-24T02:40:33.701Z,98673.81
2018-03-24T02:42:59.642Z,98677.56
2018-03-24T02:45:25.578Z,98677.95
2018-03-24T02:47:51.509Z,98681.73
2018-03-24T02:50:17.439Z,98674.37
2018-03-24T02:52:43.401Z,98671.34
2018-03-24T02:55:09.352Z,98669.15
2018-03-24T02:57:35.314Z,98669.22
2018-03-24T03:00:01.277Z,98668.58
2018-03-24T03:02:27.274Z,98669.00
2018-03-24T03:04:53.238Z,98671.69
2018-03-24T03:07:19.184Z,98671.32
2018-03-24T03:09:45.152Z,98671.82
2018-03-24T03:12:11.126Z,98664.98
2018-03-24T03:14:37.058Z,98662.96
2018-03-24T03:17:03.006Z,98667.20
2018-03-24T03:19:28.968Z,98668.38
2018-03-24T03:21:54.922Z,98667.98
2018-03-24T03:24:20.860Z,98673.19
2018-03-24T03:26:46.785Z,98674.15
2018-03-24T03:29:12.714Z,98669.84
2018-03-24T03:31:38.677Z,98666.11
2018-03-24T03:34:04.626Z,98671.70
2018-03-24T03:36:30.600Z,98669.50
2018-03-24T03:38:56.548Z,98666.26
2018-03-24T03:41:22.502Z,98670.00
2018-03-24T03:43:48.443Z,98669.67
2018-03-24T03:46:14.408Z,98674.05
2018-03-24T03:48:40.381Z,98666.36
2018-03-24T03:51:06.350Z,98666.47
2018-03-24T03:53:32.301Z,98663.80
2018-03-24T03:55:58.252Z,98665.73
2018-03-24T03:58:24.199Z,98658.13
2018-03-24T04:00:50.125Z,98655.66
2018-03-24T04:03:16.094Z,98661.45
2018-03-24T04:05:42.084Z,98653.98
2018-03-24T04:08:08.063Z,98654.48
2018-03-24T04:10:34.037Z,98654.61
2018-03-24T04:12:59.993Z,98650.13
2018-03-24T04:15:25.926Z,98647.99
2018-03-24T04:17:51.875Z,98646.43
2018-03-24T04:20:17.834Z,98652.87
2018-03-24T04:22:43.786Z,98654.74
2018-03-24T04:25:09.736Z,98651.58
2018-03-24T04:27:35.710Z,98649.81
2018-03-24T04:30:01.655Z,98653.60
2018-03-24T04:32:27.586Z,98650.05
2018-03-24T04:34:53.522Z,98646.73
2018-03-24T04:37:19.454Z,98646.59
2018-03-24T04:39:45.379Z,98645.73
2018-03-24T04:42:11.322Z,98646.31
2018-03-24T04:44:37.286Z,98644.67
2018-03-24T04:47:03.234Z,98643.52
2018-03-24T04:49:29.161Z,98647.19
2018-03-24T04:51:55.148Z,98647.27
2018-03-24T04:54:21.070Z,98646.34
2018-03-24T04:56:46.998Z,98645.30
2018-03-24T04:59:12.947Z,98643.66
2018-03-24T05:01:38.902Z,98646.83
2018-03-24T05:04:04.838Z,98649.14
2018-03-24T05:06:30.816Z,98652.03
2018-03-24T05:08:56.766Z,98647.31
2018-03-24T05:11:22.724Z,98654.09
2018-03-24T05:13:48.686Z,98660.84
2018-03-24T05:16:14.634Z,98660.40
2018-03-24T05:18:40.579Z,98660.66
2018-03-24T05:21:06.538Z,98659.41
2018-03-24T05:23:32.496Z,98662.34
2018-03-24T05:25:58.454Z,98671.58
2018-03-24T05:28:24.417Z,98671.61
2018-03-24T05:30:50.348Z,98674.18
2018-03-24T05:33:16.291Z,98673.59
2018-03-24T05:35:42.273Z,98669.89
2018-03-24T05:38:08.223Z,98673.97
2018-03-24T05:40:34.150Z,98679.23
2018-03-24T05:43:00.091Z,98671.20
2018-03-24T05:45:26.043Z,98676.72
2018-03-24T05:47:52.026Z,98676.52
2018-03-24T05:50:17.966Z,98681.36
2018-03-24T05:52:43.924Z,98682.55
2018-03-24T05:55:09.901Z,98688.00
2018-03-24T05:57:35.863Z,98687.84
2018-03-24T06:00:01.830Z,98689.98
2018-03-24T06:02:27.795Z,98686.42
2018-03-24T06:04:53.750Z,98696.45
2018-03-24T06:07:19.701Z,98691.19
2018-03-24T06:09:45.631Z,98694.63
2018-03-24T06:12:11.570Z,98694.98
2018-03-24T06:14:37.503Z,98704.14
2018-03-24T06:17:03.477Z,98699.57
2018-03-24T06:19:29.431Z,98701.38
2018-03-24T06:21:55.397Z,98697.98
2018-03-24T06:24:21.355Z,98701.39
2018-03-24T06:26:47.351Z,98709.83
2018-03-24T06:29:13.298Z,98703.54
2018-03-24T06:31:39.277Z,98707.69
2018-03-24T06:34:05.215Z,98705.92
2018-03-24T06:36:31.174Z,98710.00
2018-03-24T06:38:57.130Z,98712.42
2018-03-24T06:41:23.125Z,98711.22
2018-03-24T06:43:49.075Z,98716.39
2018-03-24T06:46:15.007Z,98717.80
2018-03-24T06:48:40.974Z,98718.22
2018-03-24T06:51:06.945Z,98714.98
2018-03-24T06:53:32.916Z,98715.42
2018-03-24T06:55:58.841Z,98716.95
2018-03-24T06:58:24.785Z,98718.70
2018-03-24T07:00:50.746Z,98718.38
2018-03-24T07:03:16.699Z,98721.31
2018-03-24T07:05:42.689Z,98716.75
2018-03-24T07:08:08.654Z,98719.23
2018-03-24T07:10:34.607Z,98725.57
2018-03-24T07:13:00.560Z,98723.06
2018-03-24T07:15:26.519Z,98727.21
2018-03-24T07:17:52.463Z,98723.86
2018-03-24T07:20:18.401Z,98726.61
2018-03-24T07:22:44.379Z,98734.60
2018-03-24T07:25:10.323Z,98736.21
2018-03-24T07:27:36.295Z,98731.56
2018-03-24T07:30:02.276Z,98743.63
2018-03-24T07:32:28.257Z,98737.36
2018-03-24T07:34:54.233Z,98736.31
2018-03-24T07:37:20.209Z,98739.88
2018-03-24T07:39:46.169Z,98739.54
2018-03-24T07:42:12.150Z,98743.13
2018-03-24T07:44:38.118Z,98741.16
2018-03-24T07:47:04.107Z,98746.86
2018-03-24T07:49:30.055Z,98746.63
2018-03-24T07:51:56.015Z,98753.84
2018-03-24T07:54:21.995Z,98751.75
2018-03-24T07:56:47.984Z,98750.12
2018-03-24T07:59:13.937Z,98747.66
2018-03-24T08:01:39.901Z,98750.30
2018-03-24T08:04:05.880Z,98744.46
2018-03-24T08:06:31.848Z,98746.19
2018-03-24T08:08:57.800Z,98754.80
2018-03-24T08:11:23.806Z,98754.81
2018-03-24T08:13:49.757Z,98751.11
2018-03-24T08:16:15.714Z,98755.33
2018-03-24T08:18:41.652Z,98751.80
2018-03-24T08:21:07.613Z,98749.45
2018-03-24T08:23:33.577Z,98751.50
2018-03-24T08:25:59.534Z,98756.15
2018-03-24T08:28:25.478Z,98750.64
2018-03-24T08:30:51.484Z,98752.73
2018-03-24T08:33:17.431Z,98751.17
2018-03-24T08:35:43.386Z,98759.30
2018-03-24T08:38:09.346Z,98755.16
2018-03-24T08:40:35.332Z,98766.59
2018-03-24T08:43:01.294Z,98763.88
2018-03-24T08:45:27.256Z,98757.28
2018-03-24T08:47:53.214Z,98763.99
2018-03-24T08:50:19.178Z,98755.63
2018-03-24T08:52:45.129Z,98763.35
2018-03-24T08:55:11.114Z,98762.22
2018-03-24T08:57:37.065Z,98764.54
2018-03-24T09:00:03.066Z,98765.77
2018-03-24T09:02:29.034Z,98769.55
2018-03-24T09:04:54.994Z,98771.92
2018-03-24T09:07:20.950Z,98770.14
2018-03-24T09:09:46.944Z,98765.20
2018-03-24T09:12:12.886Z,98765.23
2018-03-24T09:14:38.846Z,98763.23
2018-03-24T09:17:05.890Z,98764.61
2018-03-24T09:19:31.846Z,98764.78
2018-03-24T09:21:57.822Z,98767.33
2018-03-24T09:24:23.777Z,98763.83
2018-03-24T09:26:49.728Z,98763.84
2018-03-24T09:29:15.747Z,98759.11
2018-03-24T09:31:41.693Z,98758.08
2018-03-24T09:34:07.645Z,98757.05
2018-03-24T09:36:33.592Z,98760.19
2018-03-24T09:38:59.558Z,98757.77
2018-03-24T09:41:25.547Z,98757.76
2018-03-24T09:43:51.494Z,98759.34
2018-03-24T09:46:17.482Z,98759.19
2018-03-24T09:48:44.536Z,98759.45
2018-03-24T09:51:10.487Z,98754.09
2018-03-24T09:53:36.459Z,98752.82
2018-03-24T09:56:02.411Z,98756.81
2018-03-24T09:58:28.401Z,98753.52
2018-03-24T10:00:54.387Z,98752.33
2018-03-24T10:03:20.335Z,98750.52
2018-03-24T10:05:46.297Z,98753.81
2018-03-24T10:08:12.248Z,98747.59
2018-03-24T10:10:39.239Z,98752.48
2018-03-24T10:13:05.215Z,98748.48
2018-03-24T10:15:31.177Z,98750.12
2018-03-24T10:17:57.147Z,98747.59
2018-03-24T10:20:23.115Z,98741.34
2018-03-24T10:22:49.051Z,98742.31
2018-03-24T10:25:15.011Z,98751.81
2018-03-24T10:27:40.948Z,98750.89
2018-03-24T10:30:06.908Z,98747.56
2018-03-24T10:32:32.871Z,98748.78
2018-03-24T10:34:58.808Z,98742.89
2018-03-24T10:37:24.772Z,98741.86
2018-03-24T10:39:50.739Z,98744.95
2018-03-24T10:42:16.716Z,98731.08
2018-03-24T10:44:42.686Z,98739.95
2018-03-24T10:47:08.625Z,98734.15
2018-03-24T10:49:34.603Z,98733.94
2018-03-24T10:52:04.624Z,98730.73
2018-03-24T10:54:30.585Z,98736.04
2018-03-24T10:56:56.551Z,98740.20
2018-03-24T10:59:22.498Z,98733.95
2018-03-24T11:01:48.459Z,98733.09
2018-03-24T11:04:14.404Z,98732.78
2018-03-24T11:06:40.457Z,98734.54
2018-03-24T11:09:06.410Z,98736.82
2018-03-24T11:11:32.364Z,98732.70
2018-03-24T11:13:58.389Z,98732.61
2018-03-24T11:16:24.359Z,98732.59
2018-03-24T11:18:50.356Z,98730.81
2018-03-24T11:21:16.414Z,98733.38
2018-03-24T11:23:42.412Z,98726.98
2018-03-24T11:26:08.381Z,98734.13
2018-03-24T11:28:34.376Z,98725.59
2018-03-24T11:31:00.337Z,98725.20
2018-03-24T11:33:26.278Z,98726.27
2018-03-24T11:35:52.247Z,98723.14
2018-03-24T11:38:18.206Z,98726.33
2018-03-24T11:40:44.168Z,98724.56
2018-03-24T11:43:10.106Z,98722.02
2018-03-24T11:45:36.075Z,98724.59
2018-03-24T11:48:02.043Z,98719.91
2018-03-24T11:50:27.994Z,98716.45
2018-03-24T11:52:53.956Z,98718.74
2018-03-24T11:55:19.893Z,98714.38
2018-03-24T11:57:45.862Z,98720.80
2018-03-24T12:00:11.827Z,98716.07
2018-03-24T12:02:37.775Z,98718.30
2018-03-24T12:05:03.739Z,98711.44
2018-03-24T12:07:29.749Z,98719.02
2018-03-24T12:09:55.905Z,98712.81
2018-03-24T12:12:21.865Z,98706.55
2018-03-24T12:14:47.859Z,98710.20
2018-03-24T12:17:15.907Z,98715.66
2018-03-24T12:19:41.856Z,98713.00
2018-03-24T12:22:07.814Z,98713.39
2018-03-24T12:24:33.791Z,98713.57
2018-03-24T12:26:59.745Z,98724.17
2018-03-24T12:29:25.717Z,98715.41
2018-03-24T12:31:51.651Z,98726.13
2018-03-24T12:34:17.619Z,98714.48
2018-03-24T12:36:43.575Z,98719.94
2018-03-24T12:39:09.536Z,98719.45
2018-03-24T12:41:35.495Z,98723.64
2018-03-24T12:44:01.493Z,98723.49
2018-03-24T12:46:27.469Z,98726.39
2018-03-24T12:48:53.449Z,98721.98
2018-03-24T12:51:19.424Z,98724.72
2018-03-24T12:53:45.389Z,98725.75
2018-03-24T12:56:11.351Z,98734.71
2018-03-24T12:58:37.312Z,98734.61
2018-03-24T13:01:03.281Z,98730.45
2018-03-24T13:03:29.241Z,98732.47
2018-03-24T13:05:55.209Z,98739.47
2018-03-24T13:08:21.181Z,98736.44
2018-03-24T13:10:47.166Z,98733.95
2018-03-24T13:13:13.111Z,98732.34
2018-03-24T13:15:39.078Z,98727.51
2018-03-24T13:18:05.049Z,98732.97
2018-03-24T13:20:31.049Z,98732.92
2018-03-24T13:22:57.010Z,98733.38
2018-03-24T13:25:22.994Z,98738.80
2018-03-24T13:27:48.968Z,98731.86
2018-03-24T13:30:14.923Z,98728.68
2018-03-24T13:32:40.877Z,98735.93
2018-03-24T13:35:06.858Z,98737.72
2018-03-24T13:37:32.837Z,98735.49
2018-03-24T13:39:58.817Z,98740.88
2018-03-24T13:42:24.785Z,98736.73
2018-03-24T13:44:50.761Z,98742.25
2018-03-24T13:47:16.721Z,98747.15
2018-03-24T13:49:42.687Z,98748.72
2018-03-24T13:52:08.623Z,98744.02
2018-03-24T13:54:34.570Z,98754.67
2018-03-24T13:57:00.526Z,98752.34
2018-03-24T13:59:26.497Z,98755.44
2018-03-24T14:01:52.476Z,98757.70
2018-03-24T14:04:18.484Z,98746.20
2018-03-24T14:06:44.435Z,98751.37
2018-03-24T14:09:10.404Z,98751.35
2018-03-24T14:11:36.346Z,98748.73
2018-03-24T14:14:02.301Z,98748.39
2018-03-24T14:16:28.289Z,98750.70
2018-03-24T14:18:54.231Z,98755.86
2018-03-24T14:21:20.199Z,98750.35
2018-03-24T14:23:46.168Z,98753.59
2018-03-24T14:26:12.139Z,98755.70
2018-03-24T14:28:38.122Z,98752.70
2018-03-24T14:31:04.098Z,98746.44
2018-03-24T14:33:30.057Z,98741.43
2018-03-24T14:35:56.018Z,98747.10
2018-03-24T14:38:21.985Z,98749.70
2018-03-24T14:40:49.070Z,98745.19
2018-03-24T14:43:15.046Z,98747.13
2018-03-24T14:45:41.030Z,98750.95
2018-03-24T14:48:07.018Z,98747.95
2018-03-24T14:50:33.050Z,98750.95
2018-03-24T14:52:59.062Z,98746.23
2018-03-24T14:55:25.033Z,98753.41
2018-03-24T14:57:51.016Z,98745.59
2018-03-24T15:00:16.983Z,98751.92
2018-03-24T15:02:42.937Z,98748.97
2018-03-24T15:05:08.890Z,98747.77
2018-03-24T15:07:34.890Z,98750.61
2018-03-24T15:10:00.836Z,98745.21
2018-03-24T15:12:26.943Z,98746.88
2018-03-24T15:14:52.899Z,98757.66
2018-03-24T15:17:18.852Z,98765.87
2018-03-24T15:19:44.813Z,98754.05
2018-03-24T15:22:10.747Z,98747.41
2018-03-24T15:24:36.686Z,98745.20
2018-03-24T15:27:02.642Z,98749.83
2018-03-24T15:29:28.594Z,98750.32
2018-03-24T15:31:54.558Z,98754.44
2018-03-24T15:34:20.524Z,98756.94
2018-03-24T15:36:46.484Z,98761.20
2018-03-24T15:39:12.424Z,98751.58
2018-03-24T15:41:38.426Z,98754.52
2018-03-24T15:44:04.417Z,98756.55
2018-03-24T15:46:30.393Z,98763.30
2018-03-24T15:48:56.406Z,98762.81
2018-03-24T15:51:22.372Z,98761.20
2018-03-24T15:53:49.352Z,98761.66
2018-03-24T15:56:15.387Z,98767.07
2018-03-24T15:58:41.350Z,98761.55
2018-03-24T16:01:10.431Z,98766.60
2018-03-24T16:03:37.780Z,98765.31
2018-03-24T16:06:03.780Z,98768.64
2018-03-24T16:08:29.732Z,98769.64
2018-03-24T16:10:55.688Z,98775.58
2018-03-24T16:13:21.732Z,98777.23
2018-03-24T16:15:47.668Z,98770.23
2018-03-24T16:18:13.606Z,98776.45
2018-03-24T16:20:39.570Z,98774.78
2018-03-24T16:23:05.520Z,98785.27
2018-03-24T16:25:31.456Z,98784.78
2018-03-24T16:27:57.486Z,98783.14
2018-03-24T16:30:23.457Z,98779.34
2018-03-24T16:32:49.444Z,98783.95
2018-03-24T16:35:15.400Z,98783.90
2018-03-24T16:37:41.362Z,98783.13
2018-03-24T16:40:07.308Z,98785.99
2018-03-24T16:42:33.282Z,98787.25
2018-03-24T16:44:59.230Z,98775.53
2018-03-24T16:47:25.192Z,98790.61
2018-03-24T16:49:51.147Z,98789.81
2018-03-24T16:52:17.086Z,98791.92
2018-03-24T16:54:43.023Z,98791.04
2018-03-24T16:57:09.051Z,98795.66
2018-03-24T16:59:35.006Z,98786.44
2018-03-24T17:02:00.967Z,98798.19
2018-03-24T17:04:26.910Z,98792.78
2018-03-24T17:06:52.861Z,98798.20
2018-03-24T17:09:18.799Z,98794.83
2018-03-24T17:11:44.767Z,98797.33
2018-03-24T17:14:10.707Z,98793.58
2018-03-24T17:16:36.659Z,98793.59
2018-03-24T17:19:02.622Z,98793.22
2018-03-24T17:21:28.582Z,98797.41
2018-03-24T17:23:54.527Z,98794.48
2018-03-24T17:26:20.472Z,98799.50
2018-03-24T17:28:46.426Z,98802.00
2018-03-24T17:31:12.681Z,98796.99
2018-03-24T17:33:38.712Z,98805.84
2018-03-24T17:36:05.749Z,98801.21
2018-03-24T17:38:31.695Z,98802.86
2018-03-24T17:40:57.650Z,98805.42
2018-03-24T17:43:23.621Z,98800.42
2018-03-24T17:45:49.649Z,98810.45
2018-03-24T17:48:15.736Z,98808.80
2018-03-24T17:50:41.650Z,98811.75
2018-03-24T17:53:07.632Z,98810.49
2018-03-24T17:55:33.591Z,98814.22
2018-03-24T17:57:59.532Z,98820.91
2018-03-24T18:00:25.501Z,98813.41
2018-03-24T18:02:51.523Z,98817.17
2018-03-24T18:05:17.565Z,98817.59
2018-03-24T18:07:43.519Z,98807.97
2018-03-24T18:10:09.500Z,98817.59
2018-03-24T18:12:35.439Z,98823.02
2018-03-24T18:15:01.372Z,98836.81
2018-03-24T18:17:27.325Z,98836.80
2018-03-24T18:19:55.294Z,98834.72
2018-03-24T18:22:21.293Z,98835.56
2018-03-24T18:24:47.246Z,98832.67
2018-03-24T18:27:13.192Z,98843.11
2018-03-24T18:29:39.302Z,98842.70
2018-03-24T18:32:05.267Z,98843.13
2018-03-24T18:34:31.230Z,98847.31
2018-03-24T18:36:57.183Z,98845.23
2018-03-24T18:39:23.119Z,98841.04
2018-03-24T18:41:49.051Z,98849.41
2018-03-24T18:44:14.987Z,98857.34
2018-03-24T18:46:40.940Z,98852.34
2018-03-24T18:49:06.876Z,98864.03
2018-03-24T18:51:32.810Z,98861.12
2018-03-24T18:53:58.765Z,98854.42
2018-03-24T18:56:24.710Z,98857.78
2018-03-24T18:58:50.655Z,98864.89
2018-03-24T19:01:16.586Z,98856.54
2018-03-24T19:03:42.531Z,98864.48
2018-03-24T19:06:08.538Z,98869.51
2018-03-24T19:08:34.475Z,98866.16
2018-03-24T19:11:00.478Z,98874.11
2018-03-24T19:13:26.430Z,98872.44
2018-03-24T19:15:52.398Z,98869.91
2018-03-24T19:18:18.346Z,98875.38
2018-03-24T19:20:45.386Z,98869.48
2018-03-24T19:23:11.320Z,98868.67
2018-03-24T19:25:37.382Z,98874.55
2018-03-24T19:28:03.324Z,98871.20
2018-03-24T19:30:29.286Z,98867.42
2018-03-24T19:32:55.346Z,98870.31
2018-03-24T19:35:21.289Z,98869.06
2018-03-24T19:37:47.240Z,98871.13
2018-03-24T19:40:13.225Z,98866.09
2018-03-24T19:42:39.180Z,98872.37
2018-03-24T19:45:05.135Z,98872.42
2018-03-24T19:47:31.110Z,98874.12
2018-03-24T19:49:58.448Z,98875.78
2018-03-24T19:52:24.563Z,98877.77
2018-03-24T19:54:50.590Z,98881.61
2018-03-24T19:57:16.598Z,98875.65
2018-03-24T19:59:42.606Z,98873.64
2018-03-24T20:02:10.556Z,98874.00
2018-03-24T20:04:36.622Z,98876.53
2018-03-24T20:07:02.605Z,98872.36
2018-03-24T20:09:28.645Z,98873.20
2018-03-24T20:11:57.289Z,98876.54
2018-03-24T20:14:23.885Z,98871.50
2018-03-24T20:16:50.907Z,98869.86
2018-03-24T20:19:16.955Z,98875.59
2018-03-24T20:21:42.978Z,98870.77
2018-03-24T20:24:08.980Z,98879.63
2018-03-24T20:26:35.017Z,98875.56
2018-03-24T20:29:01.042Z,98876.03
2018-03-24T20:31:28.062Z,98875.97
2018-03-24T20:33:54.114Z,98877.36
2018-03-24T20:36:20.108Z,98874.33
2018-03-24T20:38:46.158Z,98872.27
2018-03-24T20:41:12.189Z,98866.05
2018-03-24T20:43:38.142Z,98874.78
2018-03-24T20:46:04.100Z,98878.03
2018-03-24T20:48:30.056Z,98881.27
2018-03-24T20:50:56.018Z,98880.34
2018-03-24T20:53:21.976Z,98887.84
2018-03-24T20:55:47.954Z,98883.19
2018-03-24T20:58:13.894Z,98882.13
2018-03-24T21:00:39.850Z,98878.68
2018-03-24T21:03:05.824Z,98884.75
2018-03-24T21:05:31.802Z,98879.59
2018-03-24T21:07:57.783Z,98883.50
2018-03-24T21:10:23.738Z,98885.22
2018-03-24T21:12:49.679Z,98883.20
2018-03-24T21:15:15.624Z,98888.53
2018-03-24T21:17:41.570Z,98886.38
2018-03-24T21:20:07.504Z,98891.28
2018-03-24T21:22:34.491Z,98891.56
2018-03-24T21:25:01.587Z,98890.50
2018-03-24T21:27:27.492Z,98881.41
2018-03-24T21:29:53.438Z,98889.05
2018-03-24T21:32:19.398Z,98778.23
2018-03-24T21:34:45.426Z,98890.08
2018-03-24T21:37:11.403Z,98893.86
2018-03-24T21:39:38.393Z,98888.17
2018-03-24T21:42:04.364Z,98891.05
2018-03-24T21:44:30.332Z,98893.35
2018-03-24T21:46:56.305Z,98891.01
2018-03-24T21:49:22.241Z,98891.55
2018-03-24T21:51:48.241Z,98886.52
2018-03-24T21:54:14.206Z,98885.84
2018-03-24T21:56:40.155Z,98890.08
2018-03-24T21:59:06.136Z,98881.00
2018-03-24T22:01:32.107Z,98880.98
2018-03-24T22:03:58.044Z,98873.09
2018-03-24T22:06:23.996Z,98883.56
2018-03-24T22:08:49.962Z,98884.34
2018-03-24T22:11:15.957Z,98878.91
2018-03-24T22:13:41.860Z,98879.55
2018-03-24T22:16:07.836Z,98882.05
2018-03-24T22:18:33.812Z,98883.73
2018-03-24T22:20:59.780Z,98875.72
2018-03-24T22:23:25.734Z,98883.91
2018-03-24T22:25:51.705Z,98884.08
2018-03-24T22:28:17.647Z,98884.39
2018-03-24T22:30:43.621Z,98882.03
2018-03-24T22:33:09.560Z,98878.69
2018-03-24T22:35:35.505Z,98875.75
2018-03-24T22:38:01.466Z,98873.83
2018-03-24T22:40:27.425Z,98866.39
2018-03-24T22:42:53.513Z,98877.77
2018-03-24T22:45:19.494Z,98873.23
2018-03-24T22:47:45.445Z,98874.34
2018-03-24T22:50:11.413Z,98867.70
2018-03-24T22:52:37.339Z,98868.64
2018-03-24T22:55:03.298Z,98865.11
2018-03-24T22:57:29.314Z,98864.32
2018-03-24T22:59:55.272Z,98863.13
2018-03-24T23:02:21.227Z,98862.59
2018-03-24T23:04:47.346Z,98864.11
2018-03-24T23:07:13.292Z,98868.36
2018-03-24T23:09:39.279Z,98871.98
2018-03-24T23:12:05.232Z,98869.01
2018-03-24T23:14:31.208Z,98870.55
2018-03-24T23:16:57.140Z,98871.75
2018-03-24T23:19:23.080Z,98873.45
2018-03-24T23:21:49.030Z,98871.02
2018-03-24T23:24:14.970Z,98870.30
2018-03-24T23:26:40.948Z,98874.64
2018-03-24T23:29:06.893Z,98872.14
2018-03-24T23:31:32.825Z,98874.71
2018-03-24T23:33:58.785Z,98875.91
2018-03-24T23:36:24.731Z,98879.61
2018-03-24T23:38:50.659Z,98877.82
2018-03-24T23:41:16.584Z,98873.33
2018-03-24T23:43:42.565Z,98880.70
2018-03-24T23:46:08.503Z,98865.06
2018-03-24T23:48:34.439Z,98867.84
2018-03-24T23:51:00.373Z,98868.81
2018-03-24T23:53:26.319Z,98869.27
2018-03-24T23:55:52.258Z,98866.58
2018-03-24T23:58:18.206Z,98864.73
